Time;durP1;ratioP1;P1;durP2;ratioP2;P2;SDS_P1;SDS_P2;PMS_P1;PMS_P2;Temp;Humidity;BMP_temperature;BMP_pressure;BME280_temperature;BME280_humidity;BME280_pressure;Samples;Min_cycle;Max_cycle;Signal;HPM_P1;HPM_P2
2021/11/15 00:00:10;;;;;;;27.20;18.33;;;;;;;3.16;73.46;95385.13;5074322;28;20055;-69
2021/11/15 00:02:36;;;;;;;28.08;16.70;;;;;;;3.12;73.88;95385.25;5091657;28;20036;-69
2021/11/15 00:05:01;;;;;;;27.60;17.75;;;;;;;3.14;74.17;95390.31;5091706;28;20047;-69
2021/11/15 00:07:26;;;;;;;24.10;16.15;;;;;;;3.12;74.39;95392.97;5074479;28;20035;-69
2021/11/15 00:09:52;;;;;;;25.38;16.98;;;;;;;3.19;74.39;95393.50;5091364;28;20032;-69
2021/11/15 00:12:17;;;;;;;25.33;16.30;;;;;;;3.21;74.08;95386.59;5092851;28;20032;-69
2021/11/15 00:14:43;;;;;;;24.60;17.20;;;;;;;3.24;74.08;95388.19;5092419;28;20024;-69
2021/11/15 00:17:08;;;;;;;26.98;17.42;;;;;;;3.20;74.64;95379.75;5090314;28;20032;-69
2021/11/15 00:19:34;;;;;;;26.58;17.42;;;;;;;3.23;74.10;95389.06;5091176;28;20071;-69
2021/11/15 00:21:59;;;;;;;26.65;17.33;;;;;;;3.25;74.38;95389.84;5091047;28;20036;-70
2021/11/15 00:24:25;;;;;;;27.05;16.42;;;;;;;3.27;74.13;95390.63;5074153;28;20028;-69
2021/11/15 00:26:50;;;;;;;21.98;15.18;;;;;;;3.26;73.86;95394.91;5092292;28;20051;-69
2021/11/15 00:29:16;;;;;;;28.40;18.13;;;;;;;3.24;73.39;95395.88;5091004;28;20020;-69
2021/11/15 00:31:41;;;;;;;23.73;15.70;;;;;;;3.19;73.25;95405.53;5092159;28;20055;-69
2021/11/15 00:34:07;;;;;;;25.65;15.52;;;;;;;3.08;72.49;95396.56;5073881;28;20024;-69
2021/11/15 00:36:32;;;;;;;21.90;15.57;;;;;;;3.02;72.80;95388.31;5073825;28;20043;-69
2021/11/15 00:38:57;;;;;;;26.08;17.58;;;;;;;2.93;73.95;95383.59;5090941;28;20290;-69
2021/11/15 00:41:23;;;;;;;24.38;16.92;;;;;;;2.99;74.02;95391.84;5090646;28;20036;-69
2021/11/15 00:43:48;;;;;;;24.50;16.35;;;;;;;2.98;73.86;95389.31;5091958;28;20032;-69
2021/11/15 00:46:14;;;;;;;28.40;17.90;;;;;;;3.02;74.47;95390.88;5073738;28;20036;-69
2021/11/15 00:48:39;;;;;;;25.35;15.43;;;;;;;3.02;74.42;95391.69;5091882;28;20031;-69
2021/11/15 00:51:06;;;;;;;25.58;17.15;;;;;;;3.01;74.05;95395.19;5091708;28;20020;-69
2021/11/15 00:53:31;;;;;;;26.45;17.40;;;;;;;2.99;73.89;95386.69;5073574;28;20031;-69
2021/11/15 00:55:57;;;;;;;23.67;15.50;;;;;;;2.97;73.49;95392.81;5090486;28;20035;-69
2021/11/15 00:58:22;;;;;;;25.40;15.65;;;;;;;2.92;73.75;95387.84;5092104;28;20043;-69
2021/11/15 01:00:48;;;;;;;24.67;16.70;;;;;;;2.93;73.94;95391.28;5090274;28;20093;-70
2021/11/15 01:03:13;;;;;;;23.83;16.60;;;;;;;2.86;74.41;95377.88;5073708;28;20489;-69
2021/11/15 01:05:40;;;;;;;23.15;15.70;;;;;;;2.77;73.73;95376.53;5056670;28;20036;-69
2021/11/15 01:08:06;;;;;;;22.15;16.10;;;;;;;2.80;73.96;95383.28;5073711;28;20043;-69
2021/11/15 01:10:32;;;;;;;26.02;17.42;;;;;;;2.77;74.35;95373.97;5090147;28;20031;-69
2021/11/15 01:12:57;;;;;;;25.92;17.30;;;;;;;2.83;75.05;95385.69;5073294;28;20481;-69
2021/11/15 01:15:24;;;;;;;27.45;16.05;;;;;;;2.78;74.66;95373.06;5090074;28;20020;-69
2021/11/15 01:17:49;;;;;;;25.25;16.75;;;;;;;2.85;74.41;95384.72;5091731;28;20085;-69
2021/11/15 01:20:15;;;;;;;26.27;16.83;;;;;;;2.81;74.69;95377.22;5073273;28;20490;-69
2021/11/15 01:22:41;;;;;;;26.60;17.10;;;;;;;2.90;75.34;95392.25;5073367;28;20047;-69
2021/11/15 01:25:07;;;;;;;27.05;17.33;;;;;;;2.87;75.21;95372.69;5089959;28;20024;-69
2021/11/15 01:27:32;;;;;;;26.73;18.50;;;;;;;2.88;74.50;95371.78;5089855;28;20040;-69
2021/11/15 01:29:58;;;;;;;26.77;17.00;;;;;;;2.89;74.57;95382.84;5056321;28;20123;-69
2021/11/15 01:32:23;;;;;;;25.95;17.08;;;;;;;2.92;74.56;95385.28;5089867;28;20032;-69
2021/11/15 01:34:49;;;;;;;26.10;16.70;;;;;;;2.91;74.85;95378.50;5091001;28;20035;-69
2021/11/15 01:37:14;;;;;;;26.23;16.73;;;;;;;2.87;75.02;95376.94;5089950;28;20047;-69
2021/11/15 01:39:41;;;;;;;26.17;16.55;;;;;;;2.90;74.83;95380.25;5089723;28;20032;-69
2021/11/15 01:42:07;;;;;;;25.17;16.38;;;;;;;2.86;74.87;95368.44;5089746;28;20085;-69
2021/11/15 01:44:32;;;;;;;26.75;17.77;;;;;;;2.89;74.77;95365.72;5089799;28;20344;-69
2021/11/15 01:46:58;;;;;;;23.83;15.90;;;;;;;2.90;74.41;95371.72;5072905;28;21061;-69
2021/11/15 01:49:23;;;;;;;25.52;15.77;;;;;;;2.94;74.49;95373.22;5089975;28;20032;-69
2021/11/15 01:51:49;;;;;;;25.20;15.68;;;;;;;2.94;75.34;95380.94;5072829;28;20187;-69
2021/11/15 01:54:14;;;;;;;23.67;16.30;;;;;;;2.94;75.18;95378.38;5089924;28;20039;-69
2021/11/15 01:56:40;;;;;;;24.75;16.00;;;;;;;2.91;75.31;95373.38;5055970;28;20039;-70
2021/11/15 01:59:05;;;;;;;25.95;17.00;;;;;;;2.88;75.12;95379.47;5072741;28;20541;-69
2021/11/15 02:01:31;;;;;;;25.10;16.50;;;;;;;2.89;75.22;95383.69;5055912;28;20087;-69
2021/11/15 02:03:57;;;;;;;27.20;16.70;;;;;;;2.86;75.19;95381.25;5072848;28;20490;-69
2021/11/15 02:06:22;;;;;;;26.58;17.23;;;;;;;2.89;74.64;95388.00;5072591;28;20032;-69
2021/11/15 02:08:48;;;;;;;25.27;16.98;;;;;;;2.91;75.04;95381.06;5089644;28;20391;-69
2021/11/15 02:11:13;;;;;;;23.23;15.43;;;;;;;2.83;74.57;95366.00;5090886;28;20028;-69
2021/11/15 02:13:40;;;;;;;22.60;14.55;;;;;;;2.82;74.19;95372.03;5072621;28;20082;-69
2021/11/15 02:16:05;;;;;;;23.60;14.90;;;;;;;2.76;74.02;95363.75;5089385;28;20105;-69
2021/11/15 02:18:31;;;;;;;24.35;15.52;;;;;;;2.85;74.24;95371.91;5089469;28;20059;-70
2021/11/15 02:21:01;;;;;;;24.02;15.23;;;;;;;2.75;74.39;95356.97;5089523;28;20266;-69
2021/11/15 02:23:28;;;;;;;25.05;16.33;;;;;;;2.80;75.00;95363.56;5073126;28;20432;-69
2021/11/15 02:25:54;;;;;;;25.00;16.33;;;;;;;2.85;75.09;95369.34;5089364;28;20031;-69
2021/11/15 02:28:30;;;;;;;26.85;16.60;;;;;;;2.86;75.61;95371.00;5089268;28;20044;-71
2021/11/15 02:30:56;;;;;;;24.83;16.33;;;;;;;2.86;75.39;95359.91;5089405;28;20413;-69
2021/11/15 02:33:21;;;;;;;26.20;16.90;;;;;;;2.82;75.60;95356.66;5090905;28;20040;-70
2021/11/15 02:35:47;;;;;;;23.13;15.45;;;;;;;2.90;75.71;95361.44;5055674;28;20474;-69
2021/11/15 02:38:12;;;;;;;26.45;15.50;;;;;;;2.91;75.32;95363.94;5072266;28;20024;-69
2021/11/15 02:40:38;;;;;;;21.08;15.00;;;;;;;2.90;75.58;95366.59;5074917;28;20024;-69
2021/11/15 02:43:03;;;;;;;21.50;14.32;;;;;;;2.92;75.13;95369.88;5076341;28;20115;-69
2021/11/15 02:45:29;;;;;;;22.50;15.13;;;;;;;2.82;75.14;95376.34;5076084;28;20501;-70
2021/11/15 02:47:55;;;;;;;21.85;14.55;;;;;;;2.86;74.99;95383.00;5059636;28;20028;-69
2021/11/15 02:50:22;;;;;;;22.45;14.70;;;;;;;2.88;75.13;95376.06;5075993;28;20043;-70
2021/11/15 02:52:53;;;;;;;23.38;14.90;;;;;;;2.83;75.14;95381.41;5093987;28;20028;-70
2021/11/15 02:55:18;;;;;;;22.27;14.33;;;;;;;2.82;75.00;95378.91;5094043;28;20032;-70
2021/11/15 02:57:43;;;;;;;21.35;14.48;;;;;;;2.79;74.71;95368.78;5094344;28;20098;-69
2021/11/15 03:00:42;;;;;;;23.80;14.40;;;;;;;2.82;74.81;95381.47;5092513;28;20044;-70
2021/11/15 03:03:09;;;;;;;22.17;14.30;;;;;;;2.77;74.64;95379.09;5092939;28;20032;-69
2021/11/15 03:05:37;;;;;;;18.15;12.80;;;;;;;2.76;74.50;95384.28;5075729;28;20486;-70
2021/11/15 03:08:03;;;;;;;19.88;13.85;;;;;;;2.74;74.53;95381.81;5076019;28;20036;-69
2021/11/15 03:10:29;;;;;;;23.25;14.35;;;;;;;2.72;74.70;95386.16;5058904;28;20020;-69
2021/11/15 03:12:55;;;;;;;20.08;12.85;;;;;;;2.72;74.07;95396.41;5075894;28;20639;-69
2021/11/15 03:15:31;;;;;;;20.45;14.13;;;;;;;2.66;73.92;95389.81;5075598;28;20399;-69
2021/11/15 03:18:04;;;;;;;20.95;14.10;;;;;;;2.62;74.00;95392.59;5075961;28;20164;-69
2021/11/15 03:20:31;;;;;;;23.15;15.43;;;;;;;2.58;73.95;95388.47;5075600;28;20031;-70
2021/11/15 03:22:57;;;;;;;22.88;14.95;;;;;;;2.56;73.66;95392.84;5092475;28;20039;-69
2021/11/15 03:25:24;;;;;;;21.38;13.98;;;;;;;2.50;73.78;95393.94;5092193;28;20032;-69
2021/11/15 03:27:49;;;;;;;23.25;14.23;;;;;;;2.45;73.04;95389.00;5058889;28;20123;-69
2021/11/15 03:30:15;;;;;;;20.58;13.90;;;;;;;2.43;73.23;95395.09;5075243;28;20024;-69
2021/11/15 03:32:43;;;;;;;21.30;13.88;;;;;;;2.32;73.53;95384.47;5092114;28;20040;-69
2021/11/15 03:35:08;;;;;;;20.65;13.00;;;;;;;2.31;73.04;95393.03;5092001;28;20027;-69
2021/11/15 03:37:34;;;;;;;20.40;14.13;;;;;;;2.26;73.53;95387.25;5092118;28;20040;-70
2021/11/15 03:39:59;;;;;;;21.65;13.93;;;;;;;2.05;73.46;95371.03;5093140;28;20021;-69
2021/11/15 03:42:25;;;;;;;22.33;14.88;;;;;;;2.11;73.01;95392.09;5091994;28;20101;-70
2021/11/15 03:44:51;;;;;;;23.63;14.30;;;;;;;2.08;72.71;95401.66;5093082;28;20051;-70
2021/11/15 03:47:17;;;;;;;22.60;14.88;;;;;;;2.03;73.09;95391.59;5093304;28;20478;-69
2021/11/15 03:49:42;;;;;;;27.65;15.57;;;;;;;1.94;73.49;95391.97;5074860;28;20077;-69
2021/11/15 03:52:07;;;;;;;23.98;14.40;;;;;;;1.97;73.09;95402.09;5074656;28;20047;-70
2021/11/15 03:54:33;;;;;;;26.92;15.65;;;;;;;1.94;73.71;95394.53;5074778;28;20036;-70
2021/11/15 03:56:58;;;;;;;25.58;14.60;;;;;;;1.91;73.61;95392.09;5074831;28;20047;-70
2021/11/15 03:59:23;;;;;;;23.80;13.43;;;;;;;1.83;73.54;95384.69;5092810;28;20023;-69
2021/11/15 04:01:50;;;;;;;22.38;14.43;;;;;;;1.84;73.24;95394.06;5093023;28;20048;-69
2021/11/15 04:04:18;;;;;;;21.35;13.60;;;;;;;1.76;73.88;95386.66;5092732;28;20036;-69
2021/11/15 04:06:50;;;;;;;22.38;14.30;;;;;;;1.72;73.51;95387.66;5092663;28;20032;-69
2021/11/15 04:09:15;;;;;;;20.17;13.75;;;;;;;1.59;73.32;95371.13;5091517;28;20024;-70
2021/11/15 04:11:41;;;;;;;21.35;14.43;;;;;;;1.60;74.04;95390.72;5092516;28;20040;-70
2021/11/15 04:14:08;;;;;;;23.13;13.95;;;;;;;1.59;74.93;95380.53;5091269;28;20081;-71
2021/11/15 04:16:33;;;;;;;23.23;13.05;;;;;;;1.62;74.62;95395.78;5091197;28;20062;-69
2021/11/15 04:19:01;;;;;;;27.80;15.77;;;;;;;1.62;74.93;95400.91;5091276;28;20035;-70
2021/11/15 04:21:28;;;;;;;20.27;13.88;;;;;;;1.58;74.92;95392.50;5092356;28;20398;-69
2021/11/15 04:23:53;;;;;;;20.98;14.43;;;;;;;1.51;74.32;95375.72;5091115;28;20070;-69
2021/11/15 04:26:18;;;;;;;20.70;13.82;;;;;;;1.57;75.07;95388.28;5091084;28;20044;-69
2021/11/15 04:28:44;;;;;;;19.75;13.52;;;;;;;1.54;74.27;95396.91;5074067;28;20028;-69
2021/11/15 04:31:09;;;;;;;23.38;14.20;;;;;;;1.51;74.47;95384.22;5090948;28;20031;-70
2021/11/15 04:33:35;;;;;;;21.13;13.93;;;;;;;1.59;74.90;95403.56;5090753;28;20513;-70
2021/11/15 04:36:00;;;;;;;22.27;13.90;;;;;;;1.55;74.17;95398.56;5090689;28;20027;-70
2021/11/15 04:38:26;;;;;;;20.05;13.10;;;;;;;1.50;74.18;95395.34;5090831;28;20483;-69
2021/11/15 04:40:51;;;;;;;20.25;12.88;;;;;;;1.37;74.37;95375.41;5091955;28;20028;-69
2021/11/15 04:43:17;;;;;;;22.45;13.82;;;;;;;1.50;74.83;95386.84;5091016;28;20032;-69
2021/11/15 04:45:42;;;;;;;19.30;13.48;;;;;;;1.62;74.44;95408.59;5091827;28;20134;-69
2021/11/15 04:48:07;;;;;;;17.10;12.02;;;;;;;1.65;74.89;95403.34;5090773;28;20387;-70
2021/11/15 04:50:33;;;;;;;19.38;13.30;;;;;;;1.73;75.30;95407.28;5090545;28;20425;-69
2021/11/15 04:52:59;;;;;;;18.02;11.95;;;;;;;1.72;75.47;95397.09;5073693;28;20032;-69
2021/11/15 04:55:24;;;;;;;20.85;13.25;;;;;;;1.83;75.48;95407.75;5073670;28;20066;-70
2021/11/15 04:57:51;;;;;;;20.33;13.43;;;;;;;1.84;75.60;95395.78;5092057;28;20032;-70
2021/11/15 05:00:18;;;;;;;18.63;12.25;;;;;;;1.94;75.65;95420.16;5073376;28;20052;-70
2021/11/15 05:02:47;;;;;;;19.77;13.35;;;;;;;1.95;76.11;95409.00;5089922;28;20032;-70
2021/11/15 05:05:13;;;;;;;18.63;11.85;;;;;;;2.03;75.67;95416.38;5090516;28;20028;-70
2021/11/15 05:07:39;;;;;;;19.45;12.40;;;;;;;2.06;75.78;95409.41;5073388;28;20238;-69
2021/11/15 05:10:05;;;;;;;18.05;11.77;;;;;;;2.13;75.60;95423.66;5073218;28;20020;-70
2021/11/15 05:12:35;;;;;;;19.75;12.32;;;;;;;2.22;75.40;95430.13;5073379;28;20042;-69
2021/11/15 05:15:00;;;;;;;19.42;13.07;;;;;;;2.22;75.76;95422.44;5090192;28;20017;-70
2021/11/15 05:17:26;;;;;;;21.08;14.00;;;;;;;2.32;75.92;95420.34;5090203;28;20030;-70
2021/11/15 05:19:51;;;;;;;19.90;13.02;;;;;;;2.34;75.67;95416.84;5073246;28;20081;-70
2021/11/15 05:22:17;;;;;;;18.02;13.02;;;;;;;2.47;75.46;95427.41;5056610;28;20532;-69
2021/11/15 05:24:42;;;;;;;19.88;13.27;;;;;;;2.52;75.50;95428.06;5090013;28;20452;-70
2021/11/15 05:27:08;;;;;;;18.48;13.35;;;;;;;2.58;75.48;95438.06;5091542;28;20474;-69
2021/11/15 05:29:33;;;;;;;18.10;12.32;;;;;;;2.61;75.34;95437.09;5089951;28;20082;-70
2021/11/15 05:31:59;;;;;;;18.63;12.63;;;;;;;2.67;75.41;95440.25;5089831;28;20085;-69
2021/11/15 05:34:24;;;;;;;18.40;12.23;;;;;;;2.63;75.30;95436.13;5089689;28;20057;-69
2021/11/15 05:36:49;;;;;;;15.02;11.35;;;;;;;2.76;74.91;95456.13;5072992;28;20043;-69
2021/11/15 05:39:15;;;;;;;18.25;12.18;;;;;;;2.81;75.19;95456.78;5089856;28;20415;-69
2021/11/15 05:41:40;;;;;;;17.80;12.52;;;;;;;2.71;74.94;95438.38;5091085;28;20521;-70
2021/11/15 05:44:06;;;;;;;20.10;13.23;;;;;;;2.80;74.62;95452.56;5089851;28;20486;-70
2021/11/15 05:46:31;;;;;;;17.92;12.73;;;;;;;2.87;74.94;95464.22;5089655;28;20403;-70
2021/11/15 05:48:57;;;;;;;19.75;13.23;;;;;;;2.70;74.40;95436.69;5090976;28;20078;-69
2021/11/15 05:51:22;;;;;;;19.15;13.13;;;;;;;2.89;74.27;95459.84;5089685;28;20028;-69
2021/11/15 05:53:48;;;;;;;17.95;13.20;;;;;;;2.94;74.03;95464.81;5090856;28;20054;-69
2021/11/15 05:56:13;;;;;;;20.55;14.25;;;;;;;2.94;74.13;95463.06;5090812;28;20558;-70
2021/11/15 05:58:39;;;;;;;20.42;13.02;;;;;;;2.99;74.12;95476.53;5072741;28;20459;-70
2021/11/15 06:01:05;;;;;;;18.00;12.52;;;;;;;2.99;73.91;95481.69;5072617;28;20093;-70
2021/11/15 06:03:30;;;;;;;17.95;11.95;;;;;;;2.94;73.64;95477.63;5089565;28;20020;-70
2021/11/15 06:05:55;;;;;;;19.80;14.18;;;;;;;2.83;73.63;95470.38;5089419;28;20056;-70
2021/11/15 06:08:21;;;;;;;23.83;15.45;;;;;;;2.79;73.31;95474.00;5089764;28;20036;-69
2021/11/15 06:10:46;;;;;;;22.05;15.30;;;;;;;2.82;73.28;95476.44;5055859;28;20035;-69
2021/11/15 06:13:12;;;;;;;21.02;14.23;;;;;;;2.78;73.85;95477.44;5089722;28;20336;-69
2021/11/15 06:15:38;;;;;;;17.80;12.80;;;;;;;2.74;73.41;95479.31;5093400;28;20024;-69
2021/11/15 06:18:03;;;;;;;16.95;11.82;;;;;;;2.74;73.59;95481.03;5093649;28;20463;-70
2021/11/15 06:20:28;;;;;;;20.30;12.93;;;;;;;2.65;73.39;95480.53;5093426;28;20044;-69
2021/11/15 06:22:54;;;;;;;17.00;12.27;;;;;;;2.63;73.77;95479.75;5076737;28;20039;-70
2021/11/15 06:25:20;;;;;;;27.55;15.80;;;;;;;2.62;73.81;95496.03;5076555;28;20040;-69
2021/11/15 06:27:45;;;;;;;144.38;52.83;;;;;;;2.52;74.22;95489.59;5076554;28;20035;-69
2021/11/15 06:30:13;;;;;;;62.53;30.15;;;;;;;2.53;74.38;95496.41;5093254;28;20042;-70
2021/11/15 06:32:38;;;;;;;47.03;21.80;;;;;;;2.53;74.31;95496.41;5093298;28;20043;-69
2021/11/15 06:35:04;;;;;;;31.77;16.38;;;;;;;2.57;74.17;95504.81;5059538;28;20024;-70
2021/11/15 06:37:30;;;;;;;20.60;13.00;;;;;;;2.60;74.39;95508.09;5093232;28;20510;-69
2021/11/15 06:39:55;;;;;;;19.05;14.38;;;;;;;2.61;74.62;95504.63;5059735;28;20031;-69
2021/11/15 06:42:21;;;;;;;17.80;11.90;;;;;;;2.62;74.85;95498.59;5094559;28;20035;-70
2021/11/15 06:44:46;;;;;;;25.20;16.17;;;;;;;2.67;74.63;95506.09;5076139;28;20047;-69
2021/11/15 06:47:11;;;;;;;21.65;14.27;;;;;;;2.73;75.62;95511.00;5093082;28;20409;-69
2021/11/15 06:49:37;;;;;;;23.20;15.02;;;;;;;2.79;74.91;95509.91;5092876;28;20044;-69
2021/11/15 06:52:04;;;;;;;20.05;13.98;;;;;;;2.77;75.16;95491.19;5092875;28;20039;-69
2021/11/15 06:54:29;;;;;;;20.88;14.45;;;;;;;2.76;75.18;95492.06;5094051;28;20337;-70
2021/11/15 06:56:54;;;;;;;25.00;16.50;;;;;;;2.87;75.73;95502.72;5092674;28;20482;-70
2021/11/15 06:59:20;;;;;;;26.38;17.27;;;;;;;2.91;75.66;95496.56;5075890;28;20028;-69
2021/11/15 07:01:46;;;;;;;23.67;15.18;;;;;;;3.01;75.52;95504.69;5075834;28;20056;-69
2021/11/15 07:04:12;;;;;;;23.10;14.68;;;;;;;2.97;75.64;95488.59;5092689;28;20089;-69
2021/11/15 07:06:37;;;;;;;21.88;13.93;;;;;;;3.18;75.41;95504.00;5092577;28;20426;-70
2021/11/15 07:09:03;;;;;;;17.98;13.27;;;;;;;3.48;77.77;95500.09;5092547;28;20032;-69
2021/11/15 07:11:30;;;;;;;21.80;14.63;;;;;;;3.71;80.89;95499.06;5075607;28;20032;-69
2021/11/15 07:13:55;;;;;;;26.83;14.93;;;;;;;4.08;80.60;95502.53;5075442;28;20402;-69
2021/11/15 07:16:21;;;;;;;26.77;16.55;;;;;;;4.36;83.48;95502.06;5092380;28;20039;-70
2021/11/15 07:18:51;;;;;;;25.13;15.77;;;;;;;4.44;80.79;95510.25;5092358;28;20029;-69
2021/11/15 07:21:17;;;;;;;24.80;17.17;;;;;;;4.70;80.66;95506.41;5076173;28;20105;-70
2021/11/15 07:23:42;;;;;;;27.10;17.90;;;;;;;4.78;81.84;95500.91;5075447;28;20505;-70
2021/11/15 07:26:07;;;;;;;24.45;16.50;;;;;;;4.86;80.22;95501.34;5074750;28;20020;-70
2021/11/15 07:28:33;;;;;;;20.77;15.82;;;;;;;5.01;78.30;95504.91;5092244;28;20032;-70
2021/11/15 07:30:58;;;;;;;18.75;14.25;;;;;;;5.05;77.35;95510.75;5075444;28;20016;-69
2021/11/15 07:33:26;;;;;;;18.33;13.70;;;;;;;5.04;76.29;95498.78;5093210;28;20028;-69
2021/11/15 07:35:51;;;;;;;18.75;13.32;;;;;;;5.08;75.78;95500.31;5092062;28;20119;-69
2021/11/15 07:38:17;;;;;;;22.23;16.58;;;;;;;5.16;76.72;95490.44;5075391;28;20035;-69
2021/11/15 07:40:43;;;;;;;23.33;15.45;;;;;;;5.39;77.13;95502.13;5075124;28;20050;-69
2021/11/15 07:43:08;;;;;;;20.70;15.52;;;;;;;5.43;76.98;95492.50;5075210;28;20432;-70
2021/11/15 07:45:34;;;;;;;19.05;13.85;;;;;;;5.60;76.84;95500.22;5093009;28;20051;-70
2021/11/15 07:47:59;;;;;;;20.77;15.25;;;;;;;5.67;75.63;95492.97;5092059;28;20516;-69
2021/11/15 07:50:24;;;;;;;23.15;14.98;;;;;;;5.89;75.27;95495.25;5091733;28;20020;-70
2021/11/15 07:52:50;;;;;;;23.38;15.98;;;;;;;6.00;74.97;95495.53;5091785;28;20506;-69
2021/11/15 07:55:15;;;;;;;27.25;18.45;;;;;;;6.10;74.57;95496.72;5092862;28;20492;-70
2021/11/15 07:57:42;;;;;;;38.47;25.90;;;;;;;6.23;73.41;95508.00;5091741;28;20036;-70
2021/11/15 08:00:08;;;;;;;54.30;37.13;;;;;;;6.32;71.60;95506.66;5091348;28;20051;-70
2021/11/15 08:02:34;;;;;;;66.35;44.65;;;;;;;6.40;71.31;95504.50;5074825;28;20498;-69
2021/11/15 08:05:00;;;;;;;53.92;36.05;;;;;;;6.43;71.61;95500.91;5091489;28;20035;-69
2021/11/15 08:07:25;;;;;;;40.92;27.92;;;;;;;6.44;71.77;95502.59;5091530;28;20081;-70
2021/11/15 08:09:50;;;;;;;45.55;30.70;;;;;;;6.55;71.80;95515.75;5074503;28;20024;-70
2021/11/15 08:12:16;;;;;;;46.97;31.63;;;;;;;6.61;71.63;95497.31;5074536;28;20043;-69
2021/11/15 08:14:42;;;;;;;43.05;28.50;;;;;;;6.65;71.52;95485.88;5074675;28;20051;-70
2021/11/15 08:17:09;;;;;;;35.28;24.17;;;;;;;6.75;71.79;95482.81;5074545;28;20478;-70
2021/11/15 08:19:35;;;;;;;40.50;27.88;;;;;;;6.87;71.77;95498.41;5091172;28;20094;-70
2021/11/15 08:22:01;;;;;;;40.72;28.15;;;;;;;6.93;72.04;95486.88;5091144;28;20024;-69
2021/11/15 08:24:29;;;;;;;49.95;34.58;;;;;;;7.22;72.09;95502.47;5092276;28;20460;-70
2021/11/15 08:26:59;;;;;;;49.55;33.17;;;;;;;7.44;73.34;95495.09;5092416;28;20036;-70
2021/11/15 08:29:27;;;;;;;45.10;30.73;;;;;;;7.55;73.13;95484.97;5085032;28;20028;-69
2021/11/15 08:31:56;;;;;;;40.45;28.25;;;;;;;7.76;72.16;95498.31;5075185;28;20085;-70
2021/11/15 08:34:21;;;;;;;44.28;30.52;;;;;;;7.83;71.61;95485.88;5081696;28;20161;-70
2021/11/15 08:36:46;;;;;;;43.88;29.77;;;;;;;7.84;71.41;95477.16;5081608;28;20032;-70
2021/11/15 08:39:14;;;;;;;94.00;51.13;;;;;;;7.98;69.54;95487.50;5070147;28;20035;-69
2021/11/15 08:41:41;;;;;;;83.35;52.55;;;;;;;8.10;70.13;95482.50;5076709;28;20047;-69
2021/11/15 08:44:09;;;;;;;51.90;34.50;;;;;;;8.18;69.25;95491.44;5051577;28;20409;-69
2021/11/15 08:46:34;;;;;;;36.95;26.05;;;;;;;8.23;68.57;95488.56;5070110;28;20032;-69
2021/11/15 08:49:02;;;;;;;41.15;28.75;;;;;;;8.34;69.02;95493.06;5068128;28;20452;-69
2021/11/15 08:51:27;;;;;;;45.30;30.50;;;;;;;8.46;67.94;95493.13;5086880;28;20093;-69
2021/11/15 08:53:54;;;;;;;42.70;29.80;;;;;;;8.47;67.73;95487.03;5071506;28;20028;-69
2021/11/15 08:56:20;;;;;;;28.42;20.50;;;;;;;8.48;66.16;95483.53;5070200;28;20043;-69
2021/11/15 08:58:45;;;;;;;26.70;19.65;;;;;;;8.54;65.58;95478.88;5084968;28;20016;-69
2021/11/15 09:01:11;;;;;;;40.22;29.23;;;;;;;8.74;66.58;95496.53;5079602;28;20101;-69
2021/11/15 09:03:38;;;;;;;32.28;24.50;;;;;;;8.83;65.80;95495.13;5073168;28;20056;-69
2021/11/15 09:06:08;;;;;;;23.08;17.85;;;;;;;8.81;64.15;95502.19;5053662;28;20025;-69
2021/11/15 09:08:35;;;;;;;17.52;13.57;;;;;;;8.87;60.94;95487.06;5053811;28;20028;-69
2021/11/15 09:11:01;;;;;;;14.65;12.57;;;;;;;8.94;59.81;95498.69;5071110;28;20025;-69
2021/11/15 09:13:27;;;;;;;14.98;12.27;;;;;;;8.93;59.34;95494.41;5053290;28;20527;-69
2021/11/15 09:15:52;;;;;;;17.33;13.18;;;;;;;8.97;60.17;95482.13;5053184;28;20025;-69
2021/11/15 09:18:18;;;;;;;14.50;12.00;;;;;;;9.03;59.00;95492.06;5069885;28;20107;-69
2021/11/15 09:20:43;;;;;;;15.10;12.82;;;;;;;9.03;59.52;95483.47;5073541;28;20122;-69
2021/11/15 09:23:09;;;;;;;16.45;13.18;;;;;;;9.14;59.74;95488.78;5070066;28;20041;-69
2021/11/15 09:25:34;;;;;;;16.92;13.27;;;;;;;9.20;59.34;95490.13;5089158;28;20077;-69
2021/11/15 09:28:00;;;;;;;15.05;12.23;;;;;;;9.20;57.59;95488.34;5090193;28;20084;-70
2021/11/15 09:30:25;;;;;;;14.60;11.98;;;;;;;9.23;58.27;95476.97;5089754;28;20027;-69
2021/11/15 09:32:51;;;;;;;13.98;11.57;;;;;;;9.27;57.45;95491.34;5073119;28;20074;-69
2021/11/15 09:35:16;;;;;;;15.25;11.50;;;;;;;9.29;56.85;95492.91;5089900;28;20024;-69
2021/11/15 09:37:42;;;;;;;14.90;12.43;;;;;;;9.33;57.10;95494.38;5090012;28;20055;-69
2021/11/15 09:40:08;;;;;;;13.55;11.02;;;;;;;9.37;56.05;95487.22;5089787;28;20140;-69
2021/11/15 09:42:34;;;;;;;14.02;11.55;;;;;;;9.30;56.15;95475.59;5073060;28;20421;-69
2021/11/15 09:45:02;;;;;;;14.32;12.15;;;;;;;9.32;56.51;95484.09;5072962;28;20028;-70
2021/11/15 09:47:27;;;;;;;17.70;12.38;;;;;;;9.34;57.28;95477.88;5056817;28;20047;-69
2021/11/15 09:49:52;;;;;;;13.93;12.15;;;;;;;9.47;56.00;95490.00;5090705;28;20024;-69
2021/11/15 09:52:18;;;;;;;13.18;11.57;;;;;;;9.42;55.57;95486.91;5091213;28;20032;-71
2021/11/15 09:54:44;;;;;;;13.70;11.68;;;;;;;9.39;54.98;95482.78;5089698;28;20024;-71
2021/11/15 09:57:12;;;;;;;15.48;13.38;;;;;;;9.44;55.80;95490.22;5073013;28;20032;-72
2021/11/15 09:59:37;;;;;;;14.95;11.73;;;;;;;9.44;55.10;95490.22;5089734;28;20052;-72
2021/11/15 10:02:03;;;;;;;13.55;11.70;;;;;;;9.50;56.03;95487.22;5084928;28;20055;-72
2021/11/15 10:04:29;;;;;;;21.15;15.55;;;;;;;9.60;56.96;95483.88;5070664;28;20058;-73
2021/11/15 10:06:57;;;;;;;17.60;14.98;;;;;;;9.72;56.18;95486.56;5069363;28;20090;-72
2021/11/15 10:09:31;;;;;;;14.77;11.73;;;;;;;9.87;55.15;95487.31;5069342;28;20493;-72
2021/11/15 10:11:58;;;;;;;15.57;12.98;;;;;;;9.85;55.12;95483.03;5069376;28;20032;-72
2021/11/15 10:14:23;;;;;;;14.27;12.25;;;;;;;9.89;55.54;95482.81;5052667;28;20035;-72
2021/11/15 10:16:58;;;;;;;15.07;12.13;;;;;;;10.02;54.76;95494.84;5087086;28;20063;-72
2021/11/15 10:19:24;;;;;;;16.65;13.10;;;;;;;10.06;54.40;95495.47;5089491;28;20107;-72
2021/11/15 10:21:51;;;;;;;16.10;12.75;;;;;;;10.15;53.29;95499.19;5072571;28;20402;-72
2021/11/15 10:24:24;;;;;;;13.90;12.00;;;;;;;10.15;53.69;95496.59;5074305;28;20032;-72
2021/11/15 10:26:57;;;;;;;15.93;13.77;;;;;;;10.18;54.32;95502.38;5070226;28;20574;-72
2021/11/15 10:29:31;;;;;;;14.02;11.75;;;;;;;10.17;53.11;95500.75;5069175;28;20479;-73
2021/11/15 10:32:01;;;;;;;15.60;11.57;;;;;;;10.19;53.56;95490.22;5053045;28;20457;-72
2021/11/15 10:34:30;;;;;;;14.25;12.20;;;;;;;10.18;53.52;95491.19;5069073;28;20032;-72
2021/11/15 10:37:22;;;;;;;15.38;13.68;;;;;;;10.26;53.34;95483.69;5068953;28;20089;-72
2021/11/15 10:39:55;;;;;;;12.60;10.65;;;;;;;10.12;51.84;95482.06;5070301;28;20034;-72
2021/11/15 10:42:27;;;;;;;13.38;11.50;;;;;;;10.15;51.79;95492.22;5052373;28;20418;-72
2021/11/15 10:44:58;;;;;;;14.55;11.13;;;;;;;10.06;52.10;95485.91;5068953;28;20226;-72
2021/11/15 10:47:40;;;;;;;16.25;13.23;;;;;;;10.03;51.40;95464.53;5052936;28;20044;-72
2021/11/15 10:50:25;;;;;;;14.20;10.88;;;;;;;10.05;51.82;95483.41;5037065;28;20025;-72
2021/11/15 10:53:21;;;;;;;13.30;10.85;;;;;;;9.98;51.12;95484.78;5053592;28;20090;-72
2021/11/15 10:56:05;;;;;;;14.18;11.02;;;;;;;9.74;51.73;95469.16;5069055;28;20033;-72
2021/11/15 10:58:44;;;;;;;12.32;10.93;;;;;;;9.84;51.94;95494.34;5070097;28;20044;-72
2021/11/15 11:01:10;;;;;;;15.63;12.38;;;;;;;9.93;53.08;95479.09;5071738;28;20068;-72
2021/11/15 11:03:37;;;;;;;13.82;11.75;;;;;;;10.02;52.50;95483.63;5072391;28;20506;-72
2021/11/15 11:06:05;;;;;;;12.13;10.77;;;;;;;10.04;52.22;95487.78;5055683;28;20071;-72
2021/11/15 11:08:49;;;;;;;11.60;10.40;;;;;;;10.03;51.19;95472.31;5072220;28;20051;-72
2021/11/15 11:11:17;;;;;;;13.27;10.80;;;;;;;10.10;52.22;95489.13;5073530;28;20016;-72
2021/11/15 11:13:49;;;;;;;11.48;10.10;;;;;;;10.19;51.62;95479.84;5072000;28;20041;-72
2021/11/15 11:16:15;;;;;;;16.17;11.88;;;;;;;10.17;52.06;95479.97;5072143;28;20020;-70
2021/11/15 11:18:51;;;;;;;13.27;11.23;;;;;;;10.20;51.99;95495.31;5055383;28;20036;-72
2021/11/15 11:26:33;;;;;;;12.80;11.48;;;;;;;10.18;51.21;95497.19;5055484;28;20060;-71